createdAt,value
2022-12-29T00:00:01.521Z,1.10
2022-12-29T00:01:01.525Z,1.10
2022-12-29T00:02:01.497Z,0.70
2022-12-29T00:03:01.577Z,0.70
2022-12-29T00:04:01.491Z,0.50
2022-12-29T00:05:01.470Z,0.80
2022-12-29T00:06:01.468Z,0.60
2022-12-29T00:07:01.439Z,0.30
2022-12-29T00:08:01.464Z,1.30
2022-12-29T00:09:01.454Z,0.50
2022-12-29T00:10:01.571Z,1.10
2022-12-29T00:11:01.449Z,3.80
2022-12-29T00:12:01.441Z,0.80
2022-12-29T00:13:01.435Z,0.60
2022-12-29T00:14:01.398Z,0.70
2022-12-29T00:15:01.439Z,0.80
2022-12-29T00:16:01.541Z,1.30
2022-12-29T00:17:01.409Z,0.90
2022-12-29T00:18:01.370Z,0.80
2022-12-29T00:19:01.410Z,1.20
2022-12-29T00:20:01.443Z,1.90
2022-12-29T00:21:01.428Z,1.00
2022-12-29T00:22:01.362Z,1.10
2022-12-29T00:23:01.366Z,0.70
2022-12-29T00:24:01.352Z,0.90
2022-12-29T00:25:01.340Z,1.70
2022-12-29T00:26:01.357Z,1.00
2022-12-29T00:27:01.353Z,1.80
2022-12-29T00:28:06.577Z,1.60
2022-12-29T00:29:03.326Z,0.70
2022-12-29T00:30:01.312Z,0.50
2022-12-29T00:31:01.336Z,0.60
2022-12-29T00:32:01.328Z,1.30
2022-12-29T00:33:01.272Z,6.30
2022-12-29T00:34:01.268Z,0.80
2022-12-29T00:35:01.295Z,0.70
2022-12-29T00:36:01.280Z,1.20
2022-12-29T00:37:01.231Z,0.80
2022-12-29T00:38:01.269Z,0.80
2022-12-29T00:39:01.273Z,0.70
2022-12-29T00:40:01.260Z,0.90
2022-12-29T00:41:01.247Z,1.10
2022-12-29T00:42:01.211Z,0.80
2022-12-29T00:43:01.345Z,1.00
2022-12-29T00:44:01.264Z,1.90
2022-12-29T00:45:01.216Z,0.50
2022-12-29T00:46:01.214Z,0.80
2022-12-29T00:47:01.259Z,1.00
2022-12-29T00:48:01.202Z,2.10
2022-12-29T00:49:01.276Z,1.70
2022-12-29T00:50:01.166Z,4.30
2022-12-29T00:51:01.181Z,0.70
2022-12-29T00:52:01.185Z,3.40
2022-12-29T00:53:01.164Z,1.00
2022-12-29T00:54:01.292Z,1.50
2022-12-29T00:55:01.126Z,1.10
2022-12-29T00:56:01.145Z,1.10
2022-12-29T00:57:01.134Z,0.90
2022-12-29T00:58:01.187Z,1.00
2022-12-29T00:59:01.148Z,1.50
2022-12-29T01:00:01.198Z,0.70
2022-12-29T01:01:01.135Z,4.00
2022-12-29T01:02:01.263Z,1.30
2022-12-29T01:03:01.320Z,1.30
2022-12-29T01:04:04.146Z,0.90
2022-12-29T01:05:02.108Z,1.80
2022-12-29T01:06:01.081Z,0.90
2022-12-29T01:07:01.079Z,0.70
2022-12-29T01:08:01.076Z,1.10
2022-12-29T01:09:01.051Z,3.90
2022-12-29T01:10:01.064Z,2.00
2022-12-29T01:11:01.065Z,1.20
2022-12-29T01:12:01.049Z,1.40
2022-12-29T01:13:01.036Z,1.20
2022-12-29T01:14:01.030Z,1.00
2022-12-29T01:15:01.044Z,1.50
2022-12-29T01:16:01.051Z,0.80
2022-12-29T01:17:00.988Z,1.40
2022-12-29T01:18:01.009Z,1.30
2022-12-29T01:19:01.023Z,2.60
2022-12-29T01:20:01.007Z,0.80
2022-12-29T01:21:00.975Z,1.20
2022-12-29T01:22:01.091Z,0.60
2022-12-29T01:23:00.983Z,0.80
2022-12-29T01:24:01.011Z,273.60
2022-12-29T01:25:01.004Z,0.90
2022-12-29T01:26:00.962Z,0.70
2022-12-29T01:27:01.007Z,1.40
2022-12-29T01:28:00.946Z,1.30
2022-12-29T01:29:00.934Z,1.40
2022-12-29T01:30:00.944Z,0.70
2022-12-29T01:31:00.904Z,0.90
2022-12-29T01:32:00.980Z,1.30
2022-12-29T01:33:00.954Z,1.20
2022-12-29T01:34:00.904Z,1.20
2022-12-29T01:35:00.911Z,1.40
2022-12-29T01:36:00.886Z,1.10
2022-12-29T01:37:00.884Z,1.80
2022-12-29T01:38:00.987Z,1.00
2022-12-29T01:39:00.860Z,1.30
2022-12-29T01:40:00.894Z,0.80
2022-12-29T01:41:00.878Z,0.90
2022-12-29T01:42:00.858Z,0.80
2022-12-29T01:43:00.850Z,1.10
2022-12-29T01:44:01.930Z,1.00
2022-12-29T01:45:00.838Z,1.60
2022-12-29T01:46:00.856Z,1.60
2022-12-29T01:47:00.816Z,0.80
2022-12-29T01:48:00.843Z,0.90
2022-12-29T01:49:00.868Z,1.70
2022-12-29T01:50:00.829Z,2.20
2022-12-29T01:51:00.778Z,1.50
2022-12-29T01:52:00.808Z,1.10
2022-12-29T01:53:00.788Z,0.80
2022-12-29T01:54:00.790Z,1.20
2022-12-29T01:55:00.822Z,1.50
2022-12-29T01:56:00.740Z,31.60
2022-12-29T01:57:00.784Z,0.90
2022-12-29T01:58:00.802Z,1.10
2022-12-29T01:59:00.780Z,2.10
2022-12-29T02:00:00.803Z,2.00
2022-12-29T02:01:00.814Z,1.80
2022-12-29T02:02:00.773Z,1.50
2022-12-29T02:03:00.825Z,1.60
2022-12-29T02:04:00.762Z,1.30
2022-12-29T02:05:04.487Z,1.60
2022-12-29T02:06:01.712Z,2.30
2022-12-29T02:07:00.741Z,0.80
2022-12-29T02:08:01.720Z,0.80
2022-12-29T02:09:00.757Z,1.90
2022-12-29T02:10:00.687Z,0.50
2022-12-29T02:11:00.721Z,0.70
2022-12-29T02:12:00.677Z,1.30
2022-12-29T02:13:00.695Z,1.80
2022-12-29T02:14:03.556Z,2.40
2022-12-29T02:15:00.715Z,1.40
2022-12-29T02:16:00.745Z,1.80
2022-12-29T02:17:00.664Z,2.30
2022-12-29T02:18:00.669Z,0.80
2022-12-29T02:19:00.634Z,0.80
2022-12-29T02:20:00.637Z,1.10
2022-12-29T02:21:00.666Z,2.20
2022-12-29T02:22:00.648Z,1.40
2022-12-29T02:23:00.643Z,0.60
2022-12-29T02:24:00.631Z,3.30
2022-12-29T02:25:00.647Z,0.50
2022-12-29T02:26:00.584Z,2.00
2022-12-29T02:27:00.606Z,0.70
2022-12-29T02:28:00.607Z,0.60
2022-12-29T02:29:00.598Z,1.30
2022-12-29T02:30:00.612Z,3.20
2022-12-29T02:31:00.572Z,1.40
2022-12-29T02:32:01.579Z,0.70
2022-12-29T02:33:00.575Z,2.70
2022-12-29T02:34:00.581Z,0.70
2022-12-29T02:35:00.545Z,20.80
2022-12-29T02:36:00.561Z,1.60
2022-12-29T02:37:00.510Z,1.00
2022-12-29T02:38:00.488Z,5.20
2022-12-29T02:39:00.515Z,1.00
2022-12-29T02:40:00.536Z,2.50
2022-12-29T02:41:00.542Z,0.90
2022-12-29T02:42:00.507Z,1.30
2022-12-29T02:43:00.522Z,1.00
2022-12-29T02:44:00.494Z,0.50
2022-12-29T02:45:00.522Z,1.20
2022-12-29T02:46:00.543Z,0.90
2022-12-29T02:47:00.514Z,0.60
2022-12-29T02:48:00.459Z,0.90
2022-12-29T02:49:00.459Z,0.70
2022-12-29T02:50:01.476Z,1.30
2022-12-29T02:51:00.466Z,0.70
2022-12-29T02:52:00.454Z,0.60
2022-12-29T02:53:00.457Z,0.70
2022-12-29T02:54:00.440Z,0.60
2022-12-29T02:55:00.439Z,0.90
2022-12-29T02:56:00.410Z,0.60
2022-12-29T02:57:00.422Z,0.70
2022-12-29T02:58:00.427Z,0.80
2022-12-29T02:59:00.442Z,79.30
2022-12-29T03:00:00.393Z,2.10
2022-12-29T03:01:00.441Z,3.40
2022-12-29T03:02:00.523Z,1.10
2022-12-29T03:03:00.498Z,0.80
2022-12-29T03:04:00.385Z,0.70
2022-12-29T03:05:00.379Z,0.80
2022-12-29T03:06:00.412Z,3.10
2022-12-29T03:07:00.363Z,0.70
2022-12-29T03:08:00.360Z,0.90
2022-12-29T03:09:00.328Z,1.80
2022-12-29T03:10:00.333Z,1.30
2022-12-29T03:11:00.344Z,1.20
2022-12-29T03:12:00.339Z,1.00
2022-12-29T03:13:00.313Z,0.60
2022-12-29T03:14:00.313Z,180.50
2022-12-29T03:15:00.324Z,1.00
2022-12-29T03:16:00.267Z,0.70
2022-12-29T03:17:00.349Z,0.40
2022-12-29T03:18:00.277Z,1.00
2022-12-29T03:19:00.329Z,1.80
2022-12-29T03:20:00.292Z,1.50
2022-12-29T03:21:00.289Z,0.90
2022-12-29T03:22:00.252Z,0.70
2022-12-29T03:23:00.326Z,0.80
2022-12-29T03:24:00.291Z,0.90
2022-12-29T03:25:00.228Z,0.90
2022-12-29T03:26:00.240Z,0.70
2022-12-29T03:27:00.261Z,0.80
2022-12-29T03:28:00.246Z,0.50
2022-12-29T03:29:00.243Z,0.70
2022-12-29T03:30:00.255Z,0.50
2022-12-29T03:31:00.307Z,1.10
2022-12-29T03:32:00.225Z,1.30
2022-12-29T03:33:00.169Z,0.80
2022-12-29T03:34:00.242Z,1.40
2022-12-29T03:35:00.201Z,0.50
2022-12-29T03:36:00.141Z,6.50
2022-12-29T03:37:00.185Z,0.80
2022-12-29T03:38:00.170Z,0.90
2022-12-29T03:39:00.156Z,0.60
2022-12-29T03:40:00.177Z,388.30
2022-12-29T03:41:00.185Z,0.80
2022-12-29T03:42:00.188Z,1.00
2022-12-29T03:43:00.137Z,0.80
2022-12-29T03:44:00.170Z,3.80
2022-12-29T03:45:00.245Z,4.00
2022-12-29T03:46:00.204Z,0.70
2022-12-29T03:47:00.139Z,5.00
2022-12-29T03:48:00.114Z,0.80
2022-12-29T03:49:00.117Z,0.70
2022-12-29T03:50:00.149Z,1.40
2022-12-29T03:51:00.143Z,0.50
2022-12-29T03:52:00.068Z,1.70
2022-12-29T03:53:00.112Z,2.80
2022-12-29T03:54:00.065Z,3.30
2022-12-29T03:55:00.079Z,0.70
2022-12-29T03:56:00.049Z,1.70
2022-12-29T03:57:00.080Z,0.70
2022-12-29T03:58:00.033Z,1.30
2022-12-29T03:59:00.072Z,0.80
2022-12-29T04:00:00.036Z,1.30
2022-12-29T04:01:00.061Z,1.70
2022-12-29T04:02:00.233Z,0.90
2022-12-29T04:03:00.188Z,0.80
2022-12-29T04:03:59.993Z,1.60
2022-12-29T04:05:00.024Z,4.30
2022-12-29T04:05:59.975Z,2.50
2022-12-29T04:07:00.040Z,4.60
2022-12-29T04:07:59.977Z,3.10
2022-12-29T04:08:59.971Z,1.70
2022-12-29T04:09:59.985Z,0.80
2022-12-29T04:10:59.996Z,0.70
2022-12-29T04:11:59.987Z,1.60
2022-12-29T04:12:59.996Z,2.20
2022-12-29T04:13:59.995Z,2.20
2022-12-29T04:14:59.956Z,0.50
2022-12-29T04:16:00.011Z,3.30
2022-12-29T04:16:59.940Z,1.00
2022-12-29T04:17:59.976Z,0.60
2022-12-29T04:18:59.934Z,1.10
2022-12-29T04:19:59.947Z,0.90
2022-12-29T04:20:59.949Z,2.10
2022-12-29T04:21:59.928Z,0.50
2022-12-29T04:22:59.912Z,0.60
2022-12-29T04:23:59.958Z,0.90
2022-12-29T04:24:59.912Z,0.60
2022-12-29T04:25:59.844Z,2.50
2022-12-29T04:27:00.919Z,1.10
2022-12-29T04:27:59.877Z,0.70
2022-12-29T04:28:59.978Z,7.80
2022-12-29T04:29:59.874Z,0.50
2022-12-29T04:30:59.883Z,0.70
2022-12-29T04:31:59.872Z,0.80
2022-12-29T04:32:59.826Z,1.00
2022-12-29T04:33:59.883Z,2.30
2022-12-29T04:34:59.993Z,1.20
2022-12-29T04:35:59.822Z,0.60
2022-12-29T04:36:59.860Z,0.60
2022-12-29T04:37:59.804Z,1.00
2022-12-29T04:38:59.826Z,0.50
2022-12-29T04:39:59.932Z,0.40
2022-12-29T04:40:59.760Z,0.60
2022-12-29T04:41:59.788Z,0.50
2022-12-29T04:42:59.806Z,0.50
2022-12-29T04:43:59.768Z,2.60
2022-12-29T04:44:59.758Z,0.50
2022-12-29T04:45:59.879Z,0.60
2022-12-29T04:46:59.802Z,0.70
2022-12-29T04:47:59.786Z,0.40
2022-12-29T04:48:59.788Z,0.40
2022-12-29T04:49:59.760Z,0.60
2022-12-29T04:50:59.768Z,0.50
2022-12-29T04:51:59.726Z,0.60
2022-12-29T04:53:00.762Z,0.40
2022-12-29T04:53:59.747Z,0.70
2022-12-29T04:54:59.703Z,0.90
2022-12-29T04:55:59.732Z,0.70
2022-12-29T04:56:59.840Z,0.60
2022-12-29T04:57:59.754Z,0.50
2022-12-29T04:58:59.662Z,0.70
2022-12-29T04:59:59.686Z,0.80
2022-12-29T05:00:59.675Z,0.80
2022-12-29T05:01:59.783Z,1.10
2022-12-29T05:02:59.799Z,0.50
2022-12-29T05:03:59.739Z,0.70
2022-12-29T05:04:59.660Z,1.20
2022-12-29T05:05:59.671Z,1.20
2022-12-29T05:06:59.651Z,17.90
2022-12-29T05:07:59.746Z,2.30
2022-12-29T05:08:59.647Z,1.40
2022-12-29T05:09:59.629Z,1.20
2022-12-29T05:10:59.628Z,1.90
2022-12-29T05:11:59.613Z,1.50
2022-12-29T05:12:59.640Z,1.90
2022-12-29T05:13:59.618Z,1.90
2022-12-29T05:14:59.581Z,1.00
2022-12-29T05:15:59.694Z,1.30
2022-12-29T05:16:59.616Z,1.50
2022-12-29T05:17:59.622Z,1.60
2022-12-29T05:18:59.608Z,3.40
2022-12-29T05:19:59.591Z,2.60
2022-12-29T05:20:59.558Z,1.60
2022-12-29T05:21:59.551Z,2.10
2022-12-29T05:22:59.599Z,1.50
2022-12-29T05:23:59.587Z,2.00
2022-12-29T05:24:59.533Z,2.10
2022-12-29T05:25:59.538Z,2.30
2022-12-29T05:26:59.559Z,1.40
2022-12-29T05:27:59.503Z,2.00
2022-12-29T05:28:59.531Z,2.10
2022-12-29T05:29:59.518Z,1.80
2022-12-29T05:30:59.559Z,42.50
2022-12-29T05:31:59.499Z,4.20
2022-12-29T05:32:59.511Z,5.80
2022-12-29T05:33:59.493Z,7.80
2022-12-29T05:34:59.516Z,3.90
2022-12-29T05:35:59.494Z,2.80
2022-12-29T05:36:59.508Z,4.30
2022-12-29T05:37:59.493Z,4.10
2022-12-29T05:38:59.514Z,3.90
2022-12-29T05:39:59.441Z,3.90
2022-12-29T05:40:59.571Z,4.60
2022-12-29T05:41:59.441Z,12.40
2022-12-29T05:42:59.454Z,18.70
2022-12-29T05:43:59.453Z,18.90
2022-12-29T05:44:59.393Z,7.10
2022-12-29T05:45:59.553Z,8.20
2022-12-29T05:46:59.499Z,6.70
2022-12-29T05:47:59.383Z,5.60
2022-12-29T05:48:59.388Z,4.30
2022-12-29T05:49:59.414Z,244.30
2022-12-29T05:50:59.387Z,20.30
2022-12-29T05:51:59.451Z,9.50
2022-12-29T05:52:59.399Z,14.20
2022-12-29T05:53:59.356Z,136.90
2022-12-29T05:54:59.380Z,38.00
2022-12-29T05:55:59.368Z,27.50
2022-12-29T05:56:59.377Z,7.80
2022-12-29T05:57:59.311Z,11.10
2022-12-29T05:58:59.374Z,12.60
2022-12-29T05:59:59.351Z,13.80
2022-12-29T06:00:59.328Z,9.60
2022-12-29T06:01:59.534Z,42.10
2022-12-29T06:02:59.561Z,12.60
2022-12-29T06:03:59.407Z,22.30
2022-12-29T06:04:59.272Z,11.20
2022-12-29T06:05:59.282Z,6.40
2022-12-29T06:06:59.315Z,9.00
2022-12-29T06:07:59.302Z,13.10
2022-12-29T06:08:59.276Z,31.00
2022-12-29T06:09:59.281Z,25.80
2022-12-29T06:10:59.303Z,17.50
2022-12-29T06:11:59.266Z,17.30
2022-12-29T06:12:59.244Z,13.50
2022-12-29T06:13:59.274Z,35.70
2022-12-29T06:14:59.240Z,25.50
2022-12-29T06:15:59.312Z,14.10
2022-12-29T06:16:59.214Z,15.20
2022-12-29T06:17:59.262Z,114.90
2022-12-29T06:18:59.256Z,39.70
2022-12-29T06:19:59.204Z,29.00
2022-12-29T06:20:59.176Z,67.20
2022-12-29T06:21:59.194Z,55.40
2022-12-29T06:22:59.195Z,20.30
2022-12-29T06:23:59.204Z,21.80
2022-12-29T06:25:04.626Z,11.40
2022-12-29T06:25:59.175Z,19.40
2022-12-29T06:26:59.166Z,100.80
2022-12-29T06:27:59.161Z,69.80
2022-12-29T06:28:59.177Z,43.30
2022-12-29T06:29:59.175Z,92.90
2022-12-29T06:30:59.152Z,82.60
2022-12-29T06:31:59.325Z,92.80
2022-12-29T06:32:59.169Z,108.50
2022-12-29T06:34:03.516Z,77.60
2022-12-29T06:35:00.276Z,189.40
2022-12-29T06:35:59.136Z,672.10
2022-12-29T06:36:59.093Z,277.30
2022-12-29T06:37:59.071Z,337.90
2022-12-29T06:38:59.074Z,230.70
2022-12-29T06:39:59.111Z,344.20
2022-12-29T06:40:59.203Z,200.80
2022-12-29T06:41:59.084Z,141.00
2022-12-29T06:42:59.088Z,141.60
2022-12-29T06:43:59.065Z,153.80
2022-12-29T06:44:59.076Z,245.20
2022-12-29T06:45:59.110Z,265.30
2022-12-29T06:46:59.069Z,433.90
2022-12-29T06:47:59.076Z,330.60
2022-12-29T06:48:59.064Z,248.00
2022-12-29T06:49:59.107Z,168.50
2022-12-29T06:50:59.002Z,123.10
2022-12-29T06:51:59.042Z,447.50
2022-12-29T06:52:59.035Z,385.10
2022-12-29T06:53:59.024Z,373.50
2022-12-29T06:54:58.968Z,222.10
2022-12-29T06:55:58.971Z,186.30
2022-12-29T06:56:59.006Z,300.00
2022-12-29T06:57:59.014Z,332.00
2022-12-29T06:58:58.998Z,306.80
2022-12-29T06:59:58.976Z,338.10
2022-12-29T07:00:59.041Z,395.50
2022-12-29T07:01:59.139Z,422.50
2022-12-29T07:02:59.130Z,421.60
2022-12-29T07:03:58.933Z,614.50
2022-12-29T07:04:58.970Z,545.40
2022-12-29T07:05:58.917Z,626.50
2022-12-29T07:06:58.952Z,813.10
2022-12-29T07:07:58.950Z,698.60
2022-12-29T07:08:58.948Z,471.00
2022-12-29T07:09:58.877Z,470.40
2022-12-29T07:10:58.882Z,557.30
2022-12-29T07:11:58.861Z,642.90
2022-12-29T07:12:58.923Z,504.60
2022-12-29T07:14:02.199Z,430.00
2022-12-29T07:14:58.860Z,358.20
2022-12-29T07:15:58.893Z,392.60
2022-12-29T07:16:58.866Z,457.00
2022-12-29T07:17:58.878Z,474.20
2022-12-29T07:18:58.891Z,589.90
2022-12-29T07:19:58.842Z,419.60
2022-12-29T07:20:58.832Z,422.40
2022-12-29T07:21:58.860Z,431.20
2022-12-29T07:22:58.831Z,463.80
2022-12-29T07:23:58.886Z,445.00
2022-12-29T07:24:58.956Z,367.60
2022-12-29T07:25:58.846Z,402.50
2022-12-29T07:26:58.831Z,338.60
2022-12-29T07:27:58.841Z,334.30
2022-12-29T07:28:58.803Z,317.70
2022-12-29T07:29:58.799Z,321.50
2022-12-29T07:30:58.773Z,432.70
2022-12-29T07:31:58.817Z,357.60
2022-12-29T07:32:58.757Z,343.20
2022-12-29T07:33:58.791Z,284.60
2022-12-29T07:34:58.774Z,262.40
2022-12-29T07:35:58.849Z,462.00
2022-12-29T07:36:58.775Z,396.20
2022-12-29T07:37:58.728Z,401.20
2022-12-29T07:38:58.722Z,407.70
2022-12-29T07:39:58.771Z,433.40
2022-12-29T07:40:58.855Z,805.80
2022-12-29T07:42:04.600Z,741.50
2022-12-29T07:42:59.714Z,522.90
2022-12-29T07:43:58.704Z,412.70
2022-12-29T07:44:58.709Z,380.00
2022-12-29T07:45:58.741Z,347.90
2022-12-29T07:46:59.347Z,272.60
2022-12-29T07:47:58.666Z,137.00
2022-12-29T07:48:58.679Z,233.00
2022-12-29T07:49:58.686Z,183.10
2022-12-29T07:50:58.629Z,158.00
2022-12-29T07:51:58.771Z,297.80
2022-12-29T07:52:58.650Z,509.10
2022-12-29T07:53:58.648Z,359.30
2022-12-29T07:54:58.641Z,565.70
2022-12-29T07:55:58.647Z,759.70
2022-12-29T07:56:58.631Z,517.80
2022-12-29T07:57:58.663Z,435.60
2022-12-29T07:58:58.593Z,445.20
2022-12-29T07:59:59.638Z,502.10
2022-12-29T08:00:58.662Z,583.50
2022-12-29T08:01:58.638Z,524.40
2022-12-29T08:02:58.705Z,366.00
2022-12-29T08:03:58.600Z,448.10
2022-12-29T08:04:58.592Z,450.50
2022-12-29T08:05:58.586Z,363.30
2022-12-29T08:06:58.565Z,339.60
2022-12-29T08:07:58.570Z,446.60
2022-12-29T08:09:01.633Z,462.50
2022-12-29T08:09:59.534Z,291.80
2022-12-29T08:10:58.525Z,419.70
2022-12-29T08:11:58.534Z,378.80
2022-12-29T08:12:58.602Z,920.30
2022-12-29T08:13:58.551Z,809.60
2022-12-29T08:14:58.520Z,751.60
2022-12-29T08:15:58.578Z,646.50
2022-12-29T08:16:58.499Z,562.30
2022-12-29T08:17:58.538Z,510.80
2022-12-29T08:18:58.468Z,470.10
2022-12-29T08:19:58.536Z,394.80
2022-12-29T08:20:58.496Z,400.10
2022-12-29T08:21:58.486Z,419.90
2022-12-29T08:22:58.444Z,403.20
2022-12-29T08:23:58.475Z,391.60
2022-12-29T08:24:58.584Z,378.30
2022-12-29T08:25:58.441Z,1999.90
2022-12-29T08:26:59.403Z,1999.90
2022-12-29T08:27:58.450Z,1999.90
2022-12-29T08:28:58.426Z,1999.90
2022-12-29T08:29:58.463Z,1999.90
2022-12-29T08:30:58.520Z,1999.90
2022-12-29T08:31:58.406Z,1999.90
2022-12-29T08:32:58.454Z,1999.90
2022-12-29T08:33:58.425Z,1999.90
2022-12-29T08:34:58.433Z,1999.90
2022-12-29T08:35:58.448Z,1999.90
2022-12-29T08:36:58.412Z,1999.90
2022-12-29T08:37:58.406Z,1999.90
2022-12-29T08:38:58.362Z,1999.90
2022-12-29T08:39:58.398Z,1999.90
2022-12-29T08:40:58.358Z,1999.90
2022-12-29T08:41:58.386Z,1999.90
2022-12-29T08:42:58.332Z,1999.90
2022-12-29T08:43:58.370Z,1999.90
2022-12-29T08:44:58.352Z,1999.90
2022-12-29T08:45:58.390Z,1999.90
2022-12-29T08:46:58.404Z,1999.90
2022-12-29T08:47:58.346Z,1999.90
2022-12-29T08:48:58.357Z,1999.90
2022-12-29T08:49:58.319Z,1999.90
2022-12-29T08:50:58.333Z,1999.90
2022-12-29T08:51:58.317Z,1999.90
2022-12-29T08:52:58.407Z,1999.90
2022-12-29T08:53:58.297Z,1999.90
2022-12-29T08:54:58.261Z,1999.90
2022-12-29T08:56:03.946Z,1999.90
2022-12-29T08:57:00.265Z,1999.90
2022-12-29T08:57:58.357Z,1999.90
2022-12-29T08:58:58.236Z,1999.90
2022-12-29T08:59:58.271Z,1999.90
2022-12-29T09:00:58.264Z,1999.90
2022-12-29T09:01:58.355Z,1999.90
2022-12-29T09:02:58.403Z,1999.90
2022-12-29T09:04:16.254Z,1999.90
2022-12-29T09:05:00.283Z,1999.90
2022-12-29T09:05:58.203Z,1999.90
2022-12-29T09:06:58.254Z,1999.90
2022-12-29T09:07:58.231Z,1999.90
2022-12-29T09:08:58.266Z,1999.90
2022-12-29T09:09:58.186Z,1999.90
2022-12-29T09:10:58.196Z,1999.90
2022-12-29T09:11:58.199Z,1999.90
2022-12-29T09:12:58.159Z,1999.90
2022-12-29T09:13:58.231Z,1999.90
2022-12-29T09:14:58.196Z,1999.90
2022-12-29T09:15:58.253Z,1999.90
2022-12-29T09:16:58.167Z,1999.90
2022-12-29T09:17:58.145Z,1999.90
2022-12-29T09:18:58.134Z,1999.90
2022-12-29T09:19:58.177Z,1999.90
2022-12-29T09:20:58.116Z,1999.90
2022-12-29T09:21:58.138Z,1999.90
2022-12-29T09:22:58.128Z,1999.90
2022-12-29T09:23:58.111Z,1999.90
2022-12-29T09:24:58.133Z,1999.90
2022-12-29T09:25:58.179Z,1999.90
2022-12-29T09:26:58.121Z,1999.90
2022-12-29T09:27:58.102Z,1999.90
2022-12-29T09:28:58.076Z,1999.90
2022-12-29T09:29:58.095Z,1999.90
2022-12-29T09:30:58.103Z,1999.90
2022-12-29T09:31:58.107Z,1999.90
2022-12-29T09:32:59.997Z,1999.90
2022-12-29T09:33:58.096Z,1999.90
2022-12-29T09:34:58.068Z,1999.90
2022-12-29T09:35:58.041Z,1999.90
2022-12-29T09:36:58.044Z,1999.90
2022-12-29T09:37:58.039Z,1999.90
2022-12-29T09:38:58.020Z,1999.90
2022-12-29T09:39:58.024Z,1999.90
2022-12-29T09:40:58.006Z,1999.90
2022-12-29T09:41:58.040Z,1999.90
2022-12-29T09:42:58.011Z,1999.90
2022-12-29T09:43:57.960Z,1999.90
2022-12-29T09:44:57.962Z,1999.90
2022-12-29T09:45:57.960Z,1999.90
2022-12-29T09:46:57.969Z,1999.90
2022-12-29T09:47:58.091Z,1999.90
2022-12-29T09:48:57.921Z,1999.90
2022-12-29T09:49:57.952Z,1999.90
2022-12-29T09:50:57.929Z,1999.90
2022-12-29T09:51:57.966Z,1999.90
2022-12-29T09:52:58.034Z,1999.90
2022-12-29T09:53:57.912Z,1999.90
2022-12-29T09:55:02.996Z,1999.90
2022-12-29T09:55:57.920Z,1999.90
2022-12-29T09:56:57.927Z,1999.90
2022-12-29T09:57:57.909Z,1999.90
2022-12-29T09:58:57.927Z,1999.90
2022-12-29T09:59:57.865Z,1999.90
2022-12-29T10:00:57.889Z,1999.90
2022-12-29T10:01:58.188Z,1999.90
2022-12-29T10:02:58.011Z,1999.90
2022-12-29T10:03:57.907Z,1999.90
2022-12-29T10:04:57.874Z,1999.90
2022-12-29T10:05:57.816Z,1999.90
2022-12-29T10:07:27.915Z,1999.90
2022-12-29T10:07:59.817Z,1999.90
2022-12-29T10:08:57.845Z,1999.90
2022-12-29T10:09:57.849Z,1999.90
2022-12-29T10:10:57.794Z,1999.90
2022-12-29T10:11:57.798Z,1999.90
2022-12-29T10:12:57.794Z,1999.90
2022-12-29T10:13:57.781Z,1999.90
2022-12-29T10:14:57.902Z,1999.90
2022-12-29T10:15:57.929Z,1999.90
2022-12-29T10:16:57.758Z,1999.90
2022-12-29T10:17:57.784Z,1999.90
2022-12-29T10:18:57.753Z,1999.90
2022-12-29T10:19:57.758Z,1999.90
2022-12-29T10:20:57.779Z,1999.90
2022-12-29T10:21:57.744Z,1999.90
2022-12-29T10:22:57.723Z,1999.90
2022-12-29T10:23:57.738Z,1999.90
2022-12-29T10:24:57.733Z,1999.90
2022-12-29T10:25:57.774Z,1999.90
2022-12-29T10:26:57.711Z,1999.90
2022-12-29T10:27:57.723Z,1999.90
2022-12-29T10:28:57.731Z,1999.90
2022-12-29T10:29:57.741Z,1999.90
2022-12-29T10:30:57.661Z,1999.90
2022-12-29T10:31:57.763Z,1999.90
2022-12-29T10:32:57.656Z,1999.90
2022-12-29T10:33:57.683Z,1999.90
2022-12-29T10:34:57.679Z,1999.90
2022-12-29T10:35:57.640Z,1999.90
2022-12-29T10:36:57.766Z,1999.90
2022-12-29T10:37:57.669Z,1999.90
2022-12-29T10:38:57.651Z,1999.90
2022-12-29T10:39:57.638Z,1999.90
2022-12-29T10:40:57.614Z,1999.90
2022-12-29T10:41:57.620Z,1999.90
2022-12-29T10:42:57.770Z,1999.90
2022-12-29T10:43:57.628Z,1999.90
2022-12-29T10:44:57.622Z,1999.90
2022-12-29T10:45:57.729Z,1999.90
2022-12-29T10:46:57.571Z,1999.90
2022-12-29T10:47:57.701Z,1999.90
2022-12-29T10:48:57.597Z,1999.90
2022-12-29T10:49:57.576Z,1999.90
2022-12-29T10:51:01.776Z,1999.90
2022-12-29T10:51:58.561Z,1999.90
2022-12-29T10:52:57.562Z,1999.90
2022-12-29T10:53:57.559Z,1999.90
2022-12-29T10:54:57.517Z,1999.90
2022-12-29T10:55:57.553Z,1999.90
2022-12-29T10:56:57.533Z,1999.90
2022-12-29T10:57:57.527Z,1999.90
2022-12-29T10:58:57.556Z,1999.90
2022-12-29T10:59:57.511Z,1999.90
2022-12-29T11:00:57.600Z,1999.90
2022-12-29T11:01:57.678Z,1999.90
2022-12-29T11:02:57.689Z,1999.90
2022-12-29T11:03:57.510Z,1999.90
2022-12-29T11:04:57.517Z,1999.90
2022-12-29T11:05:57.464Z,1999.90
2022-12-29T11:06:57.495Z,1999.90
2022-12-29T11:07:57.468Z,1999.90
2022-12-29T11:08:57.508Z,1999.90
2022-12-29T11:09:57.555Z,1999.90
2022-12-29T11:10:57.459Z,1999.90
2022-12-29T11:11:57.441Z,1999.90
2022-12-29T11:12:57.441Z,1999.90
2022-12-29T11:13:57.435Z,1999.90
2022-12-29T11:14:57.390Z,1999.90
2022-12-29T11:15:57.516Z,1999.90
2022-12-29T11:16:57.440Z,1999.90
2022-12-29T11:17:57.388Z,1999.90
2022-12-29T11:18:57.403Z,1999.90
2022-12-29T11:19:57.388Z,1999.90
2022-12-29T11:20:57.477Z,1999.90
2022-12-29T11:21:57.373Z,1999.90
2022-12-29T11:22:57.379Z,1999.90
2022-12-29T11:23:57.426Z,1999.90
2022-12-29T11:24:57.384Z,1999.90
2022-12-29T11:25:57.359Z,1999.90
2022-12-29T11:26:57.400Z,1999.90
2022-12-29T11:27:57.372Z,1999.90
2022-12-29T11:28:57.367Z,1999.90
2022-12-29T11:29:57.376Z,1999.90
2022-12-29T11:30:57.297Z,1999.90
2022-12-29T11:31:57.432Z,1999.90
2022-12-29T11:32:57.307Z,1999.90
2022-12-29T11:33:57.268Z,1999.90
2022-12-29T11:34:57.320Z,1999.90
2022-12-29T11:35:57.282Z,1999.90
2022-12-29T11:36:57.295Z,1999.90
2022-12-29T11:37:57.428Z,1999.90
2022-12-29T11:38:57.246Z,1999.90
2022-12-29T11:39:58.274Z,1999.90
2022-12-29T11:40:57.282Z,1999.90
2022-12-29T11:41:57.277Z,1999.90
2022-12-29T11:42:57.284Z,1999.90
2022-12-29T11:43:57.266Z,1999.90
2022-12-29T11:44:57.257Z,1999.90
2022-12-29T11:45:57.336Z,1999.90
2022-12-29T11:46:57.247Z,1999.90
2022-12-29T11:47:57.224Z,1999.90
2022-12-29T11:48:57.252Z,1999.90
2022-12-29T11:49:58.215Z,1999.90
2022-12-29T11:50:57.197Z,1999.90
2022-12-29T11:51:57.219Z,1999.90
2022-12-29T11:52:57.197Z,1999.90
2022-12-29T11:53:57.217Z,1999.90
2022-12-29T11:54:57.148Z,1999.90
2022-12-29T11:55:58.169Z,1999.90
2022-12-29T11:56:57.160Z,1999.90
2022-12-29T11:57:57.135Z,1999.90
2022-12-29T11:58:57.156Z,1999.90
2022-12-29T11:59:57.395Z,1999.90
2022-12-29T12:00:57.141Z,1999.90
2022-12-29T12:01:57.256Z,1999.90
2022-12-29T12:02:57.161Z,1999.90
2022-12-29T12:03:57.170Z,1999.90
2022-12-29T12:04:57.229Z,1999.90
2022-12-29T12:05:57.101Z,1999.90
2022-12-29T12:06:57.103Z,1999.90
2022-12-29T12:07:57.133Z,1999.90
2022-12-29T12:08:57.089Z,1999.90
2022-12-29T12:10:01.567Z,1999.90
2022-12-29T12:10:57.181Z,1999.90
2022-12-29T12:11:57.090Z,1999.90
2022-12-29T12:12:57.080Z,1999.90
2022-12-29T12:13:57.073Z,1999.90
2022-12-29T12:14:57.043Z,1999.90
2022-12-29T12:15:57.553Z,1999.90
2022-12-29T12:16:57.057Z,1999.90
2022-12-29T12:17:57.060Z,1999.90
2022-12-29T12:18:56.991Z,1999.90
2022-12-29T12:19:56.991Z,1999.90
2022-12-29T12:20:57.000Z,1999.90
2022-12-29T12:21:57.139Z,1999.90
2022-12-29T12:22:57.007Z,1999.90
2022-12-29T12:23:57.011Z,1999.90
2022-12-29T12:24:57.029Z,1999.90
2022-12-29T12:25:56.958Z,1999.90
2022-12-29T12:26:57.002Z,1999.90
2022-12-29T12:27:56.961Z,1999.90
2022-12-29T12:28:57.007Z,1999.90
2022-12-29T12:29:56.943Z,1999.90
2022-12-29T12:30:56.977Z,1999.90
2022-12-29T12:31:56.958Z,1999.90
2022-12-29T12:32:56.963Z,1999.90
2022-12-29T12:33:56.922Z,1999.90
2022-12-29T12:34:56.942Z,1999.90
2022-12-29T12:35:56.952Z,1999.90
2022-12-29T12:36:56.903Z,1999.90
2022-12-29T12:37:57.009Z,1999.90
2022-12-29T12:38:56.935Z,1999.90
2022-12-29T12:39:56.884Z,1999.90
2022-12-29T12:40:56.897Z,1999.90
2022-12-29T12:41:56.894Z,1999.90
2022-12-29T12:42:56.864Z,1999.90